createdAt,value
2023-03-15T00:00:01.783Z,96.40
2023-03-15T00:01:01.723Z,96.25
2023-03-15T00:02:01.810Z,96.40
2023-03-15T00:03:01.651Z,96.71
2023-03-15T00:04:01.737Z,96.30
2023-03-15T00:05:01.573Z,96.30
2023-03-15T00:06:01.539Z,96.71
2023-03-15T00:07:01.512Z,96.50
2023-03-15T00:08:03.395Z,96.50
2023-03-15T00:09:01.435Z,96.61
2023-03-15T00:10:01.456Z,96.40
2023-03-15T00:11:01.344Z,97.13
2023-03-15T00:12:01.307Z,97.13
2023-03-15T00:13:01.312Z,96.30
2023-03-15T00:14:01.221Z,96.50
2023-03-15T00:15:01.190Z,96.92
2023-03-15T00:16:01.331Z,96.30
2023-03-15T00:17:01.121Z,97.13
2023-03-15T00:18:01.086Z,96.92
2023-03-15T00:19:01.053Z,96.19
2023-03-15T00:20:01.010Z,96.82
2023-03-15T00:21:00.960Z,96.71
2023-03-15T00:22:00.998Z,96.56
2023-03-15T00:23:00.883Z,96.40
2023-03-15T00:24:00.880Z,95.83
2023-03-15T00:25:00.832Z,95.67
2023-03-15T00:26:00.774Z,95.67
2023-03-15T00:27:00.730Z,96.09
2023-03-15T00:28:00.756Z,95.98
2023-03-15T00:29:00.651Z,95.67
2023-03-15T00:30:00.609Z,95.67
2023-03-15T00:31:00.603Z,95.56
2023-03-15T00:32:00.534Z,95.15
2023-03-15T00:33:00.503Z,95.04
2023-03-15T00:34:00.543Z,95.56
2023-03-15T00:35:00.451Z,95.36
2023-03-15T00:36:00.402Z,94.79
2023-03-15T00:37:00.343Z,94.63
2023-03-15T00:38:00.310Z,94.94
2023-03-15T00:39:00.283Z,95.00
2023-03-15T00:40:00.281Z,94.52
2023-03-15T00:41:00.183Z,94.31
2023-03-15T00:42:00.211Z,95.25
2023-03-15T00:43:00.117Z,95.56
2023-03-15T00:44:00.109Z,95.04
2023-03-15T00:45:00.034Z,94.84
2023-03-15T00:46:00.001Z,94.84
2023-03-15T00:47:00.017Z,94.73
2023-03-15T00:47:59.936Z,94.69
2023-03-15T00:48:59.882Z,94.31
2023-03-15T00:49:59.850Z,94.63
2023-03-15T00:50:59.831Z,94.79
2023-03-15T00:51:59.830Z,94.79
2023-03-15T00:52:59.735Z,93.33
2023-03-15T00:53:59.686Z,93.85
2023-03-15T00:54:59.654Z,94.69
2023-03-15T00:55:59.610Z,94.69
2023-03-15T00:56:59.568Z,94.69
2023-03-15T00:57:59.594Z,94.37
2023-03-15T00:58:59.500Z,94.73
2023-03-15T00:59:59.518Z,94.94
2023-03-15T01:00:59.425Z,94.90
2023-03-15T01:02:03.125Z,95.00
2023-03-15T01:03:00.255Z,94.63
2023-03-15T01:03:59.404Z,94.63
2023-03-15T01:04:59.266Z,94.37
2023-03-15T01:05:59.215Z,94.90
2023-03-15T01:06:59.192Z,94.58
2023-03-15T01:07:59.147Z,94.73
2023-03-15T01:08:59.186Z,94.84
2023-03-15T01:09:59.079Z,94.63
2023-03-15T01:10:59.036Z,94.79
2023-03-15T01:11:58.984Z,94.79
2023-03-15T01:12:58.945Z,94.37
2023-03-15T01:13:58.917Z,94.94
2023-03-15T01:14:58.935Z,94.69
2023-03-15T01:15:58.864Z,95.15
2023-03-15T01:16:58.796Z,94.94
2023-03-15T01:17:58.754Z,94.94
2023-03-15T01:18:58.739Z,95.15
2023-03-15T01:19:58.680Z,95.36
2023-03-15T01:20:58.712Z,95.25
2023-03-15T01:21:58.607Z,95.15
2023-03-15T01:22:58.569Z,95.67
2023-03-15T01:23:58.525Z,95.46
2023-03-15T01:24:58.521Z,95.56
2023-03-15T01:25:58.452Z,95.46
2023-03-15T01:26:58.465Z,95.50
2023-03-15T01:27:58.376Z,95.36
2023-03-15T01:28:58.336Z,95.67
2023-03-15T01:29:58.302Z,95.25
2023-03-15T01:30:59.865Z,95.36
2023-03-15T01:31:58.215Z,95.40
2023-03-15T01:32:58.250Z,95.50
2023-03-15T01:33:58.222Z,95.72
2023-03-15T01:34:58.106Z,95.72
2023-03-15T01:35:58.083Z,96.23
2023-03-15T01:36:58.024Z,95.92
2023-03-15T01:37:57.987Z,96.76
2023-03-15T01:38:58.011Z,96.34
2023-03-15T01:39:57.905Z,96.55
2023-03-15T01:40:57.881Z,95.61
2023-03-15T01:41:57.837Z,95.92
2023-03-15T01:42:57.790Z,95.72
2023-03-15T01:43:57.752Z,96.07
2023-03-15T01:44:57.774Z,96.13
2023-03-15T01:45:57.676Z,96.07
2023-03-15T01:46:57.701Z,95.72
2023-03-15T01:47:57.617Z,95.72
2023-03-15T01:48:57.561Z,95.82
2023-03-15T01:49:57.524Z,96.03
2023-03-15T01:50:57.553Z,95.61
2023-03-15T01:51:57.445Z,95.72
2023-03-15T01:52:57.406Z,95.76
2023-03-15T01:53:57.372Z,95.72
2023-03-15T01:54:57.332Z,95.97
2023-03-15T01:55:57.291Z,96.80
2023-03-15T01:56:57.331Z,96.49
2023-03-15T01:57:57.217Z,96.49
2023-03-15T01:58:57.164Z,96.59
2023-03-15T01:59:57.123Z,96.70
2023-03-15T02:00:57.145Z,96.49
2023-03-15T02:01:57.192Z,97.32
2023-03-15T02:02:57.014Z,97.68
2023-03-15T02:03:56.977Z,97.11
2023-03-15T02:04:56.944Z,97.78
2023-03-15T02:05:56.919Z,97.68
2023-03-15T02:06:56.996Z,97.37
2023-03-15T02:07:56.886Z,97.78
2023-03-15T02:08:56.777Z,97.89
2023-03-15T02:09:56.745Z,98.52
2023-03-15T02:10:56.698Z,97.58
2023-03-15T02:11:56.680Z,98.26
2023-03-15T02:12:56.636Z,97.89
2023-03-15T02:13:56.667Z,98.31
2023-03-15T02:14:56.549Z,97.95
2023-03-15T02:15:56.519Z,98.10
2023-03-15T02:16:56.468Z,98.41
2023-03-15T02:17:57.242Z,98.41
2023-03-15T02:18:56.398Z,98.52
2023-03-15T02:19:56.432Z,97.68
2023-03-15T02:20:56.317Z,98.21
2023-03-15T02:21:56.271Z,97.89
2023-03-15T02:22:56.250Z,97.83
2023-03-15T02:23:56.221Z,98.04
2023-03-15T02:24:56.161Z,98.25
2023-03-15T02:25:56.189Z,98.35
2023-03-15T02:26:56.114Z,99.08
2023-03-15T02:27:56.040Z,98.77
2023-03-15T02:28:56.022Z,99.04
2023-03-15T02:29:55.988Z,98.62
2023-03-15T02:30:55.941Z,98.52
2023-03-15T02:31:56.004Z,98.83
2023-03-15T02:32:55.868Z,98.41
2023-03-15T02:33:55.830Z,98.41
2023-03-15T02:34:55.780Z,98.41
2023-03-15T02:35:55.818Z,98.41
2023-03-15T02:36:55.720Z,98.56
2023-03-15T02:37:55.712Z,98.35
2023-03-15T02:38:55.621Z,98.35
2023-03-15T02:39:55.611Z,98.35
2023-03-15T02:40:55.599Z,98.77
2023-03-15T02:41:55.508Z,99.61
2023-03-15T02:42:55.552Z,99.61
2023-03-15T02:43:55.427Z,99.40
2023-03-15T02:44:55.382Z,99.29
2023-03-15T02:45:55.439Z,99.51
2023-03-15T02:46:55.319Z,99.40
2023-03-15T02:47:55.276Z,99.51
2023-03-15T02:48:55.226Z,99.51
2023-03-15T02:49:55.196Z,99.40
2023-03-15T02:50:55.228Z,99.51
2023-03-15T02:51:55.190Z,99.29
2023-03-15T02:52:55.082Z,99.40
2023-03-15T02:53:55.044Z,99.34
2023-03-15T02:54:55.011Z,99.29
2023-03-15T02:55:54.971Z,99.24
2023-03-15T02:56:54.983Z,99.86
2023-03-15T02:57:54.879Z,99.96
2023-03-15T02:58:54.866Z,99.96
2023-03-15T02:59:54.810Z,99.99
2023-03-15T03:00:54.839Z,99.71
2023-03-15T03:01:54.786Z,99.71
2023-03-15T03:02:54.688Z,99.92
2023-03-15T03:03:54.697Z,99.51
2023-03-15T03:04:54.624Z,99.71
2023-03-15T03:05:54.572Z,99.76
2023-03-15T03:06:54.528Z,99.51
2023-03-15T03:07:54.555Z,99.61
2023-03-15T03:08:54.461Z,99.61
2023-03-15T03:09:54.487Z,99.61
2023-03-15T03:10:54.381Z,99.40
2023-03-15T03:11:54.346Z,99.29
2023-03-15T03:12:54.306Z,99.51
2023-03-15T03:13:54.316Z,99.29
2023-03-15T03:14:54.218Z,99.82
2023-03-15T03:15:54.190Z,98.88
2023-03-15T03:16:54.170Z,98.77
2023-03-15T03:17:54.110Z,98.98
2023-03-15T03:18:54.132Z,99.08
2023-03-15T03:19:54.025Z,99.08
2023-03-15T03:20:53.989Z,99.13
2023-03-15T03:21:53.941Z,98.71
2023-03-15T03:22:53.907Z,98.71
2023-03-15T03:23:53.874Z,99.02
2023-03-15T03:24:53.908Z,99.02
2023-03-15T03:25:53.787Z,99.13
2023-03-15T03:26:53.745Z,98.71
2023-03-15T03:27:53.720Z,98.98
2023-03-15T03:28:53.749Z,98.35
2023-03-15T03:29:53.641Z,98.04
2023-03-15T03:30:53.674Z,98.46
2023-03-15T03:31:53.558Z,98.35
2023-03-15T03:32:53.555Z,98.61
2023-03-15T03:33:53.476Z,99.08
2023-03-15T03:34:53.435Z,98.88
2023-03-15T03:35:53.411Z,99.19
2023-03-15T03:36:53.453Z,99.08
2023-03-15T03:37:53.320Z,99.08
2023-03-15T03:38:53.292Z,99.40
2023-03-15T03:39:53.263Z,98.39
2023-03-15T03:40:53.194Z,98.71
2023-03-15T03:41:53.161Z,99.02
2023-03-15T03:42:53.193Z,98.82
2023-03-15T03:43:53.102Z,99.02
2023-03-15T03:44:53.036Z,99.24
2023-03-15T03:45:53.091Z,99.70
2023-03-15T03:46:52.977Z,99.65
2023-03-15T03:47:52.928Z,99.99
2023-03-15T03:48:52.951Z,99.99
2023-03-15T03:49:52.847Z,99.96
2023-03-15T03:50:52.818Z,99.82
2023-03-15T03:51:52.774Z,99.76
2023-03-15T03:52:52.759Z,99.44
2023-03-15T03:53:52.689Z,99.44
2023-03-15T03:54:52.709Z,99.34
2023-03-15T03:55:52.622Z,99.40
2023-03-15T03:56:52.583Z,99.40
2023-03-15T03:57:52.544Z,98.71
2023-03-15T03:58:52.509Z,98.71
2023-03-15T03:59:52.526Z,99.55
2023-03-15T04:00:52.420Z,99.44
2023-03-15T04:01:52.379Z,99.24
2023-03-15T04:02:52.386Z,99.65
2023-03-15T04:03:52.317Z,99.55
2023-03-15T04:04:52.311Z,99.99
2023-03-15T04:05:52.397Z,99.99
2023-03-15T04:06:52.195Z,99.76
2023-03-15T04:07:52.147Z,99.99
2023-03-15T04:08:52.108Z,99.28
2023-03-15T04:09:52.076Z,99.55
2023-03-15T04:10:52.041Z,99.80
2023-03-15T04:11:52.061Z,99.91
2023-03-15T04:12:51.952Z,99.99
2023-03-15T04:13:51.907Z,99.99
2023-03-15T04:14:51.920Z,99.99
2023-03-15T04:15:51.908Z,99.99
2023-03-15T04:16:51.804Z,99.99
2023-03-15T04:17:51.769Z,99.99
2023-03-15T04:18:51.711Z,99.99
2023-03-15T04:19:51.755Z,99.99
2023-03-15T04:20:51.632Z,99.99
2023-03-15T04:21:51.594Z,99.99
2023-03-15T04:22:51.549Z,99.99
2023-03-15T04:23:51.521Z,99.99
2023-03-15T04:24:51.479Z,99.99
2023-03-15T04:25:51.503Z,99.99
2023-03-15T04:26:51.417Z,99.99
2023-03-15T04:27:51.364Z,99.99
2023-03-15T04:28:51.325Z,99.99
2023-03-15T04:29:51.298Z,99.99
2023-03-15T04:30:52.323Z,99.99
2023-03-15T04:31:51.232Z,99.99
2023-03-15T04:32:51.222Z,99.99
2023-03-15T04:33:51.133Z,99.99
2023-03-15T04:34:51.099Z,99.99
2023-03-15T04:35:51.129Z,99.99
2023-03-15T04:36:51.026Z,99.99
2023-03-15T04:37:50.975Z,99.99
2023-03-15T04:38:50.933Z,99.99
2023-03-15T04:39:50.897Z,99.99
2023-03-15T04:40:50.868Z,99.99
2023-03-15T04:41:50.896Z,99.99
2023-03-15T04:42:50.787Z,99.99
2023-03-15T04:43:50.748Z,99.99
2023-03-15T04:44:50.718Z,99.99
2023-03-15T04:45:50.666Z,99.99
2023-03-15T04:46:50.681Z,99.99
2023-03-15T04:47:50.684Z,99.99
2023-03-15T04:48:50.605Z,99.99
2023-03-15T04:49:50.511Z,99.99
2023-03-15T04:50:50.477Z,99.99
2023-03-15T04:51:50.438Z,99.99
2023-03-15T04:52:50.390Z,99.99
2023-03-15T04:53:50.414Z,99.99
2023-03-15T04:54:50.325Z,99.99
2023-03-15T04:55:50.282Z,99.99
2023-03-15T04:56:50.238Z,99.99
2023-03-15T04:57:50.211Z,99.99
2023-03-15T04:58:50.169Z,99.99
2023-03-15T04:59:50.178Z,99.99
2023-03-15T05:00:50.160Z,99.99
2023-03-15T05:01:50.088Z,99.99
2023-03-15T05:02:50.086Z,99.99
2023-03-15T05:03:49.973Z,99.99
2023-03-15T05:04:49.937Z,99.99
2023-03-15T05:05:49.890Z,99.99
2023-03-15T05:06:49.855Z,99.99
2023-03-15T05:07:49.812Z,99.99
2023-03-15T05:08:49.821Z,99.99
2023-03-15T05:09:49.732Z,99.99
2023-03-15T05:10:49.692Z,99.99
2023-03-15T05:11:49.649Z,99.99
2023-03-15T05:12:49.647Z,99.99
2023-03-15T05:13:49.655Z,99.99
2023-03-15T05:14:49.597Z,99.99
2023-03-15T05:15:49.496Z,99.99
2023-03-15T05:16:49.454Z,99.99
2023-03-15T05:17:49.444Z,99.99
2023-03-15T05:18:49.442Z,99.99
2023-03-15T05:19:49.344Z,99.99
2023-03-15T05:20:49.304Z,99.99
2023-03-15T05:21:49.291Z,99.99
2023-03-15T05:22:49.235Z,99.99
2023-03-15T05:23:49.189Z,99.99
2023-03-15T05:24:49.196Z,99.99
2023-03-15T05:25:49.105Z,99.99
2023-03-15T05:26:49.063Z,99.99
2023-03-15T05:27:49.028Z,99.99
2023-03-15T05:28:48.994Z,99.99
2023-03-15T05:29:48.951Z,99.99
2023-03-15T05:30:48.975Z,99.99
2023-03-15T05:31:48.938Z,99.99
2023-03-15T05:32:48.899Z,99.99
2023-03-15T05:33:48.821Z,99.99
2023-03-15T05:34:48.756Z,99.99
2023-03-15T05:35:48.791Z,99.99
2023-03-15T05:36:48.748Z,99.99
2023-03-15T05:37:48.628Z,99.99
2023-03-15T05:38:48.602Z,99.99
2023-03-15T05:39:48.582Z,99.99
2023-03-15T05:40:48.523Z,99.99
2023-03-15T05:41:48.497Z,99.68
2023-03-15T05:42:48.503Z,99.84
2023-03-15T05:43:48.409Z,99.22
2023-03-15T05:44:48.416Z,98.80
2023-03-15T05:45:48.437Z,98.80
2023-03-15T05:46:48.283Z,98.69
2023-03-15T05:47:48.295Z,98.69
2023-03-15T05:48:48.213Z,98.18
2023-03-15T05:49:48.184Z,98.07
2023-03-15T05:50:48.136Z,98.18
2023-03-15T05:51:48.094Z,98.13
2023-03-15T05:52:48.071Z,98.28
2023-03-15T05:53:48.082Z,98.07
2023-03-15T05:54:48.008Z,97.81
2023-03-15T05:55:47.954Z,98.23
2023-03-15T05:56:47.909Z,97.61
2023-03-15T05:57:47.899Z,97.61
2023-03-15T05:58:47.869Z,97.30
2023-03-15T05:59:47.830Z,98.13
2023-03-15T06:00:47.952Z,97.67
2023-03-15T06:01:47.710Z,97.71
2023-03-15T06:02:47.675Z,98.08
2023-03-15T06:03:47.690Z,97.88
2023-03-15T06:04:47.656Z,97.25
2023-03-15T06:05:47.558Z,97.14
2023-03-15T06:06:47.550Z,97.10
2023-03-15T06:07:47.480Z,97.20
2023-03-15T06:08:47.452Z,97.20
2023-03-15T06:09:47.406Z,96.89
2023-03-15T06:10:47.423Z,97.00
2023-03-15T06:11:47.325Z,96.79
2023-03-15T06:12:47.294Z,96.89
2023-03-15T06:13:47.242Z,96.48
2023-03-15T06:14:47.208Z,96.37
2023-03-15T06:15:47.220Z,96.64
2023-03-15T06:16:47.196Z,95.85
2023-03-15T06:17:47.109Z,95.54
2023-03-15T06:18:47.070Z,95.39
2023-03-15T06:19:47.028Z,96.01
2023-03-15T06:20:46.984Z,96.80
2023-03-15T06:21:46.993Z,97.12
2023-03-15T06:22:46.917Z,97.64
2023-03-15T06:23:46.864Z,96.80
2023-03-15T06:24:46.828Z,96.34
2023-03-15T06:25:46.790Z,94.57
2023-03-15T06:26:46.750Z,94.32
2023-03-15T06:27:46.835Z,94.16
2023-03-15T06:28:46.685Z,92.86
2023-03-15T06:29:46.665Z,92.86
2023-03-15T06:30:46.634Z,92.76
2023-03-15T06:31:46.568Z,92.72
2023-03-15T06:32:46.581Z,92.26
2023-03-15T06:33:46.584Z,91.78
2023-03-15T06:34:46.471Z,90.75
2023-03-15T06:35:46.458Z,90.75
2023-03-15T06:36:46.381Z,90.95
2023-03-15T06:37:46.347Z,91.37
2023-03-15T06:38:46.315Z,91.58
2023-03-15T06:39:46.330Z,90.91
2023-03-15T06:40:46.233Z,90.91
2023-03-15T06:41:46.286Z,90.29
2023-03-15T06:42:46.174Z,90.50
2023-03-15T06:43:46.137Z,90.25
2023-03-15T06:44:46.084Z,90.29
2023-03-15T06:45:46.129Z,89.25
2023-03-15T06:46:46.012Z,89.77
2023-03-15T06:47:45.970Z,89.62
2023-03-15T06:48:45.940Z,89.58
2023-03-15T06:49:45.899Z,88.75
2023-03-15T06:50:47.623Z,90.10
2023-03-15T06:51:45.909Z,89.48
2023-03-15T06:52:45.792Z,88.75
2023-03-15T06:53:45.753Z,88.13
2023-03-15T06:54:45.717Z,88.13
2023-03-15T06:55:45.689Z,88.17
2023-03-15T06:56:45.649Z,87.76
2023-03-15T06:57:45.870Z,87.55
2023-03-15T06:58:45.561Z,88.34
2023-03-15T06:59:45.531Z,87.61
2023-03-15T07:00:45.510Z,87.61
2023-03-15T07:01:45.524Z,88.78
2023-03-15T07:02:45.549Z,88.05
2023-03-15T07:03:45.375Z,86.49
2023-03-15T07:04:45.359Z,85.83
2023-03-15T07:05:45.303Z,85.11
2023-03-15T07:06:45.292Z,85.11
2023-03-15T07:07:45.251Z,85.11
2023-03-15T07:08:45.264Z,85.56
2023-03-15T07:09:45.162Z,85.87
2023-03-15T07:10:45.130Z,85.97
2023-03-15T07:11:45.089Z,86.29
2023-03-15T07:12:45.056Z,86.29
2023-03-15T07:13:45.026Z,86.70
2023-03-15T07:14:45.046Z,85.66
2023-03-15T07:15:44.977Z,85.35
2023-03-15T07:16:44.906Z,85.97
2023-03-15T07:17:44.873Z,87.01
2023-03-15T07:18:44.840Z,87.53
2023-03-15T07:19:55.765Z,87.84
2023-03-15T07:20:44.841Z,87.43
2023-03-15T07:21:44.719Z,87.01
2023-03-15T07:22:44.693Z,87.26
2023-03-15T07:23:44.657Z,86.91
2023-03-15T07:24:44.627Z,87.32
2023-03-15T07:25:54.352Z,87.43
2023-03-15T07:26:44.604Z,87.74
2023-03-15T07:27:45.144Z,87.95
2023-03-15T07:28:44.463Z,87.63
2023-03-15T07:29:44.439Z,87.53
2023-03-15T07:30:44.406Z,87.70
2023-03-15T07:31:44.356Z,86.87
2023-03-15T07:32:44.481Z,87.35
2023-03-15T07:33:44.290Z,87.35
2023-03-15T07:34:44.248Z,86.21
2023-03-15T07:35:44.266Z,85.38
2023-03-15T07:36:44.177Z,85.42
2023-03-15T07:37:44.829Z,86.00
2023-03-15T07:38:44.180Z,85.58
2023-03-15T07:39:44.083Z,85.69
2023-03-15T07:40:44.033Z,85.58
2023-03-15T07:41:44.001Z,85.34
2023-03-15T07:42:43.967Z,85.38
2023-03-15T07:43:43.924Z,85.58
2023-03-15T07:44:43.960Z,85.44
2023-03-15T07:45:43.838Z,85.34
2023-03-15T07:46:43.910Z,85.79
2023-03-15T07:47:43.765Z,86.41
2023-03-15T07:48:43.767Z,87.10
2023-03-15T07:49:43.712Z,86.89
2023-03-15T07:50:43.721Z,85.82
2023-03-15T07:51:43.635Z,86.13
2023-03-15T07:52:43.599Z,85.61
2023-03-15T07:53:43.551Z,85.30
2023-03-15T07:54:43.522Z,84.12
2023-03-15T07:55:43.487Z,84.33
2023-03-15T07:56:43.515Z,84.37
2023-03-15T07:57:43.424Z,85.05
2023-03-15T07:58:43.425Z,84.06
2023-03-15T07:59:43.330Z,83.91
2023-03-15T08:00:43.317Z,84.27
2023-03-15T08:01:43.317Z,83.85
2023-03-15T08:02:43.340Z,84.30
2023-03-15T08:03:43.206Z,84.09
2023-03-15T08:04:43.160Z,84.82
2023-03-15T08:05:43.130Z,84.58
2023-03-15T08:06:43.085Z,84.47
2023-03-15T08:07:43.055Z,83.81
2023-03-15T08:08:43.068Z,83.54
2023-03-15T08:09:42.984Z,83.54
2023-03-15T08:10:42.945Z,84.06
2023-03-15T08:11:44.648Z,83.85
2023-03-15T08:12:42.867Z,83.85
2023-03-15T08:13:42.900Z,83.61
2023-03-15T08:14:42.873Z,84.06
2023-03-15T08:15:42.776Z,83.29
2023-03-15T08:16:42.811Z,83.71
2023-03-15T08:17:42.693Z,83.75
2023-03-15T08:18:42.661Z,84.27
2023-03-15T08:19:42.643Z,84.12
2023-03-15T08:20:42.664Z,83.81
2023-03-15T08:21:42.554Z,83.85
2023-03-15T08:22:42.518Z,83.85
2023-03-15T08:23:42.484Z,83.75
2023-03-15T08:24:42.448Z,83.54
2023-03-15T08:25:42.460Z,83.61
2023-03-15T08:26:42.437Z,83.29
2023-03-15T08:27:42.345Z,83.50
2023-03-15T08:28:42.315Z,83.56
2023-03-15T08:29:42.273Z,83.77
2023-03-15T08:30:42.234Z,84.05
2023-03-15T08:31:42.203Z,83.11
2023-03-15T08:32:42.250Z,82.70
2023-03-15T08:33:42.120Z,81.77
2023-03-15T08:34:42.092Z,82.04
2023-03-15T08:35:42.096Z,80.80
2023-03-15T08:36:42.110Z,80.84
2023-03-15T08:37:41.986Z,82.04
2023-03-15T08:38:41.997Z,81.63
2023-03-15T08:39:41.905Z,81.67
2023-03-15T08:40:41.874Z,81.05
2023-03-15T08:41:41.840Z,82.08
2023-03-15T08:42:41.798Z,82.08
2023-03-15T08:43:41.768Z,82.08
2023-03-15T08:44:41.795Z,81.87
2023-03-15T08:45:59.824Z,82.39
2023-03-15T08:46:41.744Z,82.80
2023-03-15T08:47:41.630Z,83.28
2023-03-15T08:48:41.596Z,82.25
2023-03-15T08:49:41.574Z,82.31
2023-03-15T08:50:41.578Z,80.80
2023-03-15T08:51:41.483Z,80.39
2023-03-15T08:52:41.452Z,80.70
2023-03-15T08:53:41.513Z,80.18
2023-03-15T08:54:41.388Z,80.87
2023-03-15T08:55:41.349Z,80.97
2023-03-15T08:56:41.360Z,80.87
2023-03-15T08:57:41.273Z,80.29
2023-03-15T08:58:41.244Z,80.94
2023-03-15T08:59:41.202Z,81.91
2023-03-15T09:00:41.193Z,81.91
2023-03-15T09:01:41.140Z,83.56
2023-03-15T09:02:41.184Z,82.74
2023-03-15T09:03:41.056Z,82.32
2023-03-15T09:04:41.104Z,82.50
2023-03-15T09:05:41.103Z,83.53
2023-03-15T09:06:40.962Z,83.63
2023-03-15T09:07:40.928Z,84.05
2023-03-15T09:08:40.953Z,83.63
2023-03-15T09:09:40.853Z,83.98
2023-03-15T09:10:40.815Z,84.08
2023-03-15T09:11:40.847Z,84.05
2023-03-15T09:12:40.755Z,82.35
2023-03-15T09:13:40.708Z,82.00
2023-03-15T09:14:40.730Z,79.36
2023-03-15T09:15:40.628Z,78.74
2023-03-15T09:16:40.631Z,78.28
2023-03-15T09:17:40.570Z,78.91
2023-03-15T09:18:40.538Z,78.66
2023-03-15T09:19:40.517Z,78.05
2023-03-15T09:20:40.522Z,77.80
2023-03-15T09:21:40.813Z,76.21
2023-03-15T09:22:40.399Z,76.42
2023-03-15T09:23:40.366Z,75.87
2023-03-15T09:24:40.330Z,75.84
2023-03-15T09:25:40.342Z,75.73
2023-03-15T09:26:40.255Z,75.77
2023-03-15T09:27:40.219Z,75.39
2023-03-15T09:28:40.190Z,75.70
2023-03-15T09:29:40.156Z,75.87
2023-03-15T09:30:40.198Z,74.84
2023-03-15T09:31:40.086Z,75.05
2023-03-15T09:32:40.105Z,75.36
2023-03-15T09:33:40.016Z,74.95
2023-03-15T09:34:41.846Z,74.08
2023-03-15T09:35:40.042Z,74.19
2023-03-15T09:36:39.912Z,74.29
2023-03-15T09:37:39.878Z,76.66
2023-03-15T09:38:39.847Z,75.12
2023-03-15T09:39:39.814Z,75.12
2023-03-15T09:40:39.794Z,74.60
2023-03-15T09:41:39.789Z,75.53
2023-03-15T09:42:39.702Z,74.19
2023-03-15T09:43:39.667Z,73.60
2023-03-15T09:44:39.633Z,73.54
2023-03-15T09:45:39.612Z,74.40
2023-03-15T09:46:42.097Z,75.12
2023-03-15T09:47:39.606Z,74.40
2023-03-15T09:48:39.507Z,74.77
2023-03-15T09:49:39.457Z,74.29
2023-03-15T09:50:39.435Z,74.02
2023-03-15T09:51:39.413Z,75.12
2023-03-15T09:52:39.362Z,75.43
2023-03-15T09:53:39.400Z,75.18
2023-03-15T09:54:39.305Z,74.95
2023-03-15T09:55:39.264Z,74.02
2023-03-15T09:56:39.226Z,74.22
2023-03-15T09:57:39.233Z,74.40
2023-03-15T09:58:39.157Z,73.88
2023-03-15T09:59:39.191Z,73.36
2023-03-15T10:00:39.173Z,73.47
2023-03-15T10:01:39.090Z,74.05
2023-03-15T10:02:39.048Z,73.57
2023-03-15T10:03:39.041Z,73.40
2023-03-15T10:04:38.979Z,73.50
2023-03-15T10:05:38.976Z,74.63
2023-03-15T10:06:38.885Z,75.26
2023-03-15T10:07:38.873Z,75.09
2023-03-15T10:08:38.867Z,74.50
2023-03-15T10:09:38.816Z,74.84
2023-03-15T10:10:38.787Z,76.43
2023-03-15T10:11:38.722Z,76.01
2023-03-15T10:12:38.682Z,76.87
2023-03-15T10:13:38.703Z,76.91
2023-03-15T10:14:38.599Z,77.43
2023-03-15T10:15:38.600Z,77.12
2023-03-15T10:16:38.548Z,77.94
2023-03-15T10:17:38.529Z,78.67
2023-03-15T10:18:38.465Z,78.77
2023-03-15T10:19:38.493Z,78.56
2023-03-15T10:20:38.405Z,79.29
2023-03-15T10:21:38.369Z,78.53
2023-03-15T10:22:38.332Z,78.01
2023-03-15T10:23:38.288Z,78.94
2023-03-15T10:24:38.266Z,78.98
2023-03-15T10:25:38.285Z,78.98
2023-03-15T10:26:38.190Z,78.56
2023-03-15T10:27:38.146Z,78.74
2023-03-15T10:28:38.120Z,78.46
2023-03-15T10:29:38.308Z,78.53
2023-03-15T10:30:38.039Z,77.60
2023-03-15T10:31:44.683Z,77.91
2023-03-15T10:32:38.026Z,77.87
2023-03-15T10:33:37.946Z,77.56
2023-03-15T10:34:37.961Z,76.81
2023-03-15T10:35:37.900Z,75.22
2023-03-15T10:36:37.828Z,73.57
2023-03-15T10:37:37.786Z,73.43
2023-03-15T10:38:37.768Z,73.33
2023-03-15T10:39:37.784Z,73.43
2023-03-15T10:40:37.682Z,73.54
2023-03-15T10:41:37.639Z,73.54
2023-03-15T10:42:39.840Z,73.64
2023-03-15T10:43:37.574Z,73.74
2023-03-15T10:44:37.586Z,74.05
2023-03-15T10:45:37.504Z,75.09
2023-03-15T10:46:37.491Z,74.36
2023-03-15T10:47:39.559Z,74.67
2023-03-15T10:48:37.397Z,75.32
2023-03-15T10:49:37.365Z,75.43
2023-03-15T10:50:37.388Z,75.74
2023-03-15T10:51:37.292Z,75.63
2023-03-15T10:52:37.260Z,76.18
2023-03-15T10:53:37.223Z,75.84
2023-03-15T10:54:37.194Z,75.43
2023-03-15T10:55:37.164Z,75.18
2023-03-15T10:56:37.174Z,73.68
2023-03-15T10:57:37.084Z,73.68
2023-03-15T10:58:37.055Z,73.68
2023-03-15T10:59:37.016Z,74.71
2023-03-15T11:00:37.004Z,74.40
2023-03-15T11:01:36.993Z,73.36
2023-03-15T11:02:36.955Z,73.68
2023-03-15T11:03:36.867Z,73.74
2023-03-15T11:04:36.843Z,73.64
2023-03-15T11:05:36.845Z,73.22
2023-03-15T11:06:36.788Z,74.26
2023-03-15T11:07:36.761Z,72.99
2023-03-15T11:08:36.769Z,73.26
2023-03-15T11:09:36.697Z,74.98
2023-03-15T11:10:36.627Z,72.27
2023-03-15T11:11:36.631Z,71.34
2023-03-15T11:12:36.578Z,71.65
2023-03-15T11:13:36.538Z,70.86
2023-03-15T11:14:36.538Z,70.28
2023-03-15T11:15:36.591Z,70.04
2023-03-15T11:16:36.468Z,70.58
2023-03-15T11:17:36.375Z,71.61
2023-03-15T11:18:36.347Z,71.41
2023-03-15T11:19:36.324Z,73.02
2023-03-15T11:20:36.302Z,73.16
2023-03-15T11:21:36.328Z,70.89
2023-03-15T11:22:36.203Z,70.89
2023-03-15T11:23:36.186Z,71.51
2023-03-15T11:24:36.221Z,70.96
2023-03-15T11:25:36.117Z,71.69
2023-03-15T11:26:36.143Z,71.55
2023-03-15T11:27:36.036Z,71.34
2023-03-15T11:28:36.007Z,71.72
2023-03-15T11:29:35.993Z,69.01
2023-03-15T11:30:35.931Z,70.35
2023-03-15T11:31:36.000Z,69.22
2023-03-15T11:32:35.916Z,68.88
2023-03-15T11:33:35.833Z,68.13
2023-03-15T11:34:35.808Z,68.23
2023-03-15T11:35:35.875Z,68.98
2023-03-15T11:36:35.719Z,70.49
2023-03-15T11:37:35.752Z,68.23
2023-03-15T11:38:35.664Z,69.05
2023-03-15T11:39:35.622Z,67.20
2023-03-15T11:40:35.605Z,66.31
2023-03-15T11:41:35.567Z,68.26
2023-03-15T11:42:35.531Z,68.77
2023-03-15T11:43:35.575Z,68.67
2023-03-15T11:44:35.461Z,68.70
2023-03-15T11:45:35.478Z,66.51
2023-03-15T11:46:35.461Z,66.64
2023-03-15T11:47:35.353Z,65.72
2023-03-15T11:48:35.311Z,66.03
2023-03-15T11:49:35.283Z,66.75
2023-03-15T11:50:35.244Z,67.78
2023-03-15T11:51:35.325Z,66.64
2023-03-15T11:52:35.184Z,67.16
2023-03-15T11:53:35.147Z,67.71
2023-03-15T11:54:35.118Z,67.12
2023-03-15T11:55:35.104Z,68.18
2023-03-15T11:56:35.050Z,68.90
2023-03-15T11:57:35.116Z,69.96
2023-03-15T11:58:35.010Z,70.48
2023-03-15T11:59:35.058Z,69.31
2023-03-15T12:00:34.928Z,69.04
2023-03-15T12:01:34.882Z,66.74
2023-03-15T12:02:34.957Z,66.53
2023-03-15T12:03:34.942Z,66.05
2023-03-15T12:04:34.775Z,66.77
2023-03-15T12:05:34.760Z,66.36
2023-03-15T12:06:34.708Z,66.56
2023-03-15T12:07:34.674Z,67.90
2023-03-15T12:08:34.699Z,67.60
2023-03-15T12:09:34.674Z,66.74
2023-03-15T12:10:34.566Z,66.74
2023-03-15T12:11:34.530Z,65.37
2023-03-15T12:12:34.498Z,65.61
2023-03-15T12:13:34.476Z,65.06
2023-03-15T12:14:34.426Z,65.26
2023-03-15T12:15:34.460Z,65.47
2023-03-15T12:16:34.435Z,65.34
2023-03-15T12:17:36.273Z,66.27
2023-03-15T12:18:34.294Z,66.58
2023-03-15T12:19:34.260Z,65.13
2023-03-15T12:20:34.219Z,65.13
2023-03-15T12:21:34.255Z,65.65
2023-03-15T12:22:34.163Z,66.06
2023-03-15T12:23:34.118Z,65.65
2023-03-15T12:24:34.086Z,65.26
2023-03-15T12:25:39.514Z,65.34
2023-03-15T12:26:34.031Z,65.75
2023-03-15T12:27:34.037Z,66.06
2023-03-15T12:28:34.009Z,65.86
2023-03-15T12:29:33.915Z,66.44
2023-03-15T12:30:33.926Z,65.83
2023-03-15T12:31:33.842Z,65.83
2023-03-15T12:32:33.886Z,66.16
2023-03-15T12:33:33.822Z,66.58
2023-03-15T12:34:33.735Z,65.11
2023-03-15T12:35:33.707Z,64.46
2023-03-15T12:36:33.670Z,63.74
2023-03-15T12:37:33.697Z,62.95
2023-03-15T12:38:33.591Z,62.84
2023-03-15T12:39:33.608Z,63.49
2023-03-15T12:40:33.528Z,63.49
2023-03-15T12:41:33.490Z,62.66
2023-03-15T12:42:33.472Z,60.71
2023-03-15T12:43:33.449Z,61.22
2023-03-15T12:44:33.407Z,61.12
2023-03-15T12:45:34.141Z,60.91
2023-03-15T12:46:33.468Z,61.84
2023-03-15T12:47:33.285Z,61.84
2023-03-15T12:48:33.283Z,62.87
2023-03-15T12:49:33.213Z,60.91
2023-03-15T12:50:33.180Z,60.84
2023-03-15T12:51:33.201Z,61.46